05N weather

South Oaks Aerodrome
Winterville, North Carolina, United States

Public forecast

Using degrees Fahrenheit for public forecast. Weather courtesy of forecast.io.

METAR (pilot weather report)

Closest report is Pitt Greenville Airport, 9.3 nm (17.2 km) N. Retrieved 2019/04/26 09:25 UTC (0 seconds ago):

KPGV 260925Z AUTO 21008KT 10SM CLR 20/15 A2980 RMK AO2

TAF (pilot weather forecast)

Closest forecast is Pitt Greenville Airport, 9.3 nm (17.2 km) N. Retrieved 2019/04/26 06:48 UTC (2 hours ago):

TAF KPGV 260545Z 2606/2706 18004KT P6SM BKN150 FM261300 19011G20KT P6SM VCSH SCT025 OVC040 FM261700 21016G32KT 6SM SHRA VCTS SCT025CB OVC050 FM270000 26014G22KT P6SM BKN250 AMD LTD TO CLD VIS AND WIND